Time;durP1;ratioP1;P1;durP2;ratioP2;P2;SDS_P1;SDS_P2;PMS_P1;PMS_P2;Temp;Humidity;BMP_temperature;BMP_pressure;BME280_temperature;BME280_humidity;BME280_pressure;Samples;Min_cycle;Max_cycle;Signal;HPM_P1;HPM_P2
2020/12/24 00:00:16;;;;;;;0.50;0.50;;;10.10;1.00;;;;;;4862120;29;21013;-75
2020/12/24 00:02:44;;;;;;;0.57;0.50;;;10.10;1.00;;;;;;4867134;29;20966;-75
2020/12/24 00:05:13;;;;;;;0.40;0.40;;;10.20;1.00;;;;;;4872574;29;20227;-75
2020/12/24 00:07:40;;;;;;;1.87;0.40;;;10.20;20.60;;;;;;4863649;29;20473;-76
2020/12/24 00:10:08;;;;;;;0.70;0.50;;;10.20;30.20;;;;;;4862221;29;20497;-74
2020/12/24 00:12:36;;;;;;;0.40;0.40;;;10.20;1.00;;;;;;4864069;29;21173;-74
2020/12/24 00:15:04;;;;;;;0.90;0.40;;;10.30;99.90;;;;;;4867598;29;20467;-75
2020/12/24 00:17:31;;;;;;;0.40;0.40;;;10.30;1.00;;;;;;4863688;29;20470;-74
2020/12/24 00:19:59;;;;;;;0.40;0.40;;;10.40;99.90;;;;;;4866828;29;20587;-75
2020/12/24 00:22:27;;;;;;;0.40;0.40;;;10.40;1.00;;;;;;4861739;29;20480;-75
2020/12/24 00:24:54;;;;;;;0.50;0.50;;;10.40;1.00;;;;;;4867184;29;20474;-75
2020/12/24 00:27:21;;;;;;;3.27;0.50;;;10.40;1.00;;;;;;4864597;29;20832;-74
2020/12/24 00:29:49;;;;;;;1.80;0.40;;;10.30;1.00;;;;;;4867813;29;20583;-76
2020/12/24 00:32:16;;;;;;;0.40;0.40;;;10.30;1.00;;;;;;4863532;29;20968;-76
2020/12/24 00:34:44;;;;;;;0.60;0.43;;;10.30;1.00;;;;;;4861563;29;20539;-76
2020/12/24 00:37:12;;;;;;;0.50;0.50;;;10.30;1.00;;;;;;4883553;29;20563;-76
2020/12/24 00:39:40;;;;;;;0.53;0.50;;;10.40;90.00;;;;;;4862430;29;20472;-74
2020/12/24 00:42:07;;;;;;;0.50;0.50;;;10.40;99.90;;;;;;4863583;29;21003;-76
2020/12/24 00:44:35;;;;;;;0.40;0.40;;;10.50;1.00;;;;;;4876753;29;21055;-75
2020/12/24 00:47:02;;;;;;;0.43;0.43;;;10.60;1.00;;;;;;4865513;29;20479;-76
2020/12/24 00:49:29;;;;;;;0.60;0.50;;;10.60;99.90;;;;;;4861029;29;20563;-77
2020/12/24 00:51:58;;;;;;;4.30;0.50;;;10.60;1.00;;;;;;4879438;29;20592;-76
2020/12/24 00:54:25;;;;;;;1.47;0.50;;;10.70;1.00;;;;;;4867282;29;21052;-76
2020/12/24 00:56:53;;;;;;;0.50;0.50;;;10.60;99.90;;;;;;4864572;29;21055;-77
2020/12/24 00:59:20;;;;;;;0.60;0.40;;;10.70;99.90;;;;;;4865800;29;20474;-77
2020/12/24 01:01:47;;;;;;;0.97;0.50;;;10.70;99.90;;;;;;4867061;29;20488;-76
2020/12/24 01:04:14;;;;;;;0.60;0.60;;;10.60;99.90;;;;;;4874708;29;20479;-77
2020/12/24 01:06:42;;;;;;;0.90;0.40;;;10.60;99.90;;;;;;4884373;29;20509;-76
2020/12/24 01:09:09;;;;;;;0.90;0.50;;;10.40;1.00;;;;;;4874336;29;20569;-77
2020/12/24 01:11:36;;;;;;;0.50;0.50;;;10.40;1.00;;;;;;4864007;29;20503;-75
2020/12/24 01:14:04;;;;;;;0.50;0.50;;;10.50;1.00;;;;;;4867646;29;20475;-76
2020/12/24 01:16:32;;;;;;;0.40;0.40;;;10.50;1.00;;;;;;4865738;29;20482;-76
2020/12/24 01:19:00;;;;;;;0.50;0.40;;;10.20;1.00;;;;;;4859951;29;20862;-76
2020/12/24 01:21:28;;;;;;;4.53;0.50;;;10.00;1.00;;;;;;4865826;29;20497;-76
2020/12/24 01:23:55;;;;;;;0.80;0.57;;;10.10;1.00;;;;;;4867838;29;20488;-77
2020/12/24 01:26:22;;;;;;;0.50;0.50;;;10.00;1.00;;;;;;4886645;29;20899;-77
2020/12/24 01:28:50;;;;;;;0.50;0.50;;;10.00;1.00;;;;;;4864249;29;20546;-77
2020/12/24 01:31:18;;;;;;;0.50;0.50;;;9.80;1.00;;;;;;4865525;29;20495;-75
2020/12/24 01:33:45;;;;;;;0.50;0.50;;;9.60;17.10;;;;;;4871873;29;20462;-76
2020/12/24 01:36:12;;;;;;;0.50;0.50;;;9.60;23.20;;;;;;4880008;29;21365;-75
2020/12/24 01:38:40;;;;;;;0.70;0.30;;;9.50;16.60;;;;;;4866291;29;20472;-76
2020/12/24 01:41:08;;;;;;;1.03;0.30;;;9.40;9.50;;;;;;4867855;29;20501;-76
2020/12/24 01:43:35;;;;;;;0.50;0.50;;;9.30;1.00;;;;;;4867420;29;20480;-75
2020/12/24 01:46:02;;;;;;;0.40;0.40;;;9.30;1.00;;;;;;4885946;29;20483;-75
2020/12/24 01:48:30;;;;;;;0.53;0.50;;;9.30;1.00;;;;;;4870979;29;20524;-77
2020/12/24 01:50:58;;;;;;;0.40;0.40;;;9.30;1.00;;;;;;4882790;29;20640;-77
2020/12/24 01:53:26;;;;;;;0.50;0.50;;;9.20;99.90;;;;;;4868895;29;20618;-77
2020/12/24 01:55:56;;;;;;;0.67;0.50;;;9.20;99.90;;;;;;4863938;29;20531;-77
2020/12/24 01:58:24;;;;;;;0.43;0.43;;;9.30;99.90;;;;;;4883159;29;21164;-77
2020/12/24 02:00:51;;;;;;;0.50;0.50;;;9.10;99.90;;;;;;4878114;29;20599;-76
2020/12/24 02:03:18;;;;;;;1.33;0.43;;;9.10;99.90;;;;;;4870662;29;20484;-75
2020/12/24 02:05:47;;;;;;;0.67;0.50;;;9.10;99.90;;;;;;4867277;29;20468;-76
2020/12/24 02:08:16;;;;;;;0.40;0.40;;;9.10;99.90;;;;;;4870759;29;20483;-77
2020/12/24 02:10:43;;;;;;;0.40;0.40;;;9.10;99.90;;;;;;4868786;29;20714;-76
2020/12/24 02:13:11;;;;;;;1.70;0.47;;;9.10;1.00;;;;;;4882181;29;20480;-75
2020/12/24 02:15:38;;;;;;;0.83;0.43;;;9.00;99.90;;;;;;4870988;29;20476;-73
2020/12/24 02:18:06;;;;;;;0.70;0.50;;;8.90;99.90;;;;;;4870267;29;20493;-75
2020/12/24 02:20:33;;;;;;;0.43;0.40;;;8.90;29.90;;;;;;4866762;29;20491;-75
2020/12/24 02:23:02;;;;;;;1.53;0.40;;;9.00;1.00;;;;;;4876628;29;20560;-75
2020/12/24 02:25:29;;;;;;;0.40;0.40;;;9.00;54.50;;;;;;4867455;29;20553;-75
2020/12/24 02:27:56;;;;;;;1.40;0.50;;;8.90;99.90;;;;;;4864758;29;20470;-74
2020/12/24 02:30:23;;;;;;;0.70;0.50;;;8.90;99.90;;;;;;4866126;29;20508;-75
2020/12/24 02:32:51;;;;;;;0.50;0.50;;;9.00;1.00;;;;;;4867237;29;20831;-75
2020/12/24 02:35:18;;;;;;;1.30;0.50;;;9.10;99.90;;;;;;4865270;29;20480;-75
2020/12/24 02:37:45;;;;;;;4.03;0.60;;;9.00;99.90;;;;;;4867228;29;20468;-75
2020/12/24 02:40:14;;;;;;;0.87;0.40;;;9.00;1.00;;;;;;4865464;29;20502;-76
2020/12/24 02:42:41;;;;;;;0.47;0.47;;;8.90;99.90;;;;;;4866148;29;20479;-76
2020/12/24 02:45:09;;;;;;;1.23;0.50;;;8.90;54.10;;;;;;4882027;29;20476;-75
2020/12/24 02:47:37;;;;;;;0.47;0.40;;;8.90;99.90;;;;;;4866204;29;20828;-77
2020/12/24 02:50:06;;;;;;;0.40;0.40;;;8.70;1.00;;;;;;4865331;29;20492;-75
2020/12/24 02:52:33;;;;;;;0.50;0.50;;;8.70;1.00;;;;;;4878646;29;20487;-75
2020/12/24 02:55:00;;;;;;;0.53;0.40;;;8.60;99.90;;;;;;4864891;29;20772;-76
2020/12/24 02:57:29;;;;;;;0.40;0.40;;;8.50;1.00;;;;;;4861489;29;20515;-75
2020/12/24 03:00:07;;;;;;;0.40;0.40;;;8.40;1.00;;;;;;4868654;29;21116;-76
2020/12/24 03:02:36;;;;;;;2.40;0.50;;;8.40;3.30;;;;;;4868616;29;20532;-75
2020/12/24 03:05:03;;;;;;;0.50;0.50;;;8.40;99.90;;;;;;4867391;29;20475;-75
2020/12/24 03:07:31;;;;;;;2.50;0.43;;;8.40;99.90;;;;;;4864410;29;20473;-75
2020/12/24 03:09:58;;;;;;;0.40;0.40;;;8.40;99.90;;;;;;4866721;29;20509;-75
2020/12/24 03:12:26;;;;;;;1.50;0.40;;;8.30;99.90;;;;;;4868069;29;20536;-75
2020/12/24 03:14:54;;;;;;;1.27;0.50;;;8.20;99.90;;;;;;4866320;29;20487;-74
2020/12/24 03:17:22;;;;;;;0.47;0.40;;;8.10;99.90;;;;;;4864716;29;20469;-73
2020/12/24 03:19:49;;;;;;;2.83;0.70;;;8.10;1.00;;;;;;4864047;29;20462;-75
2020/12/24 03:22:16;;;;;;;0.93;0.50;;;8.10;1.00;;;;;;4862936;29;20973;-75
2020/12/24 03:24:43;;;;;;;1.03;0.47;;;8.00;1.00;;;;;;4862756;29;20477;-75
2020/12/24 03:27:11;;;;;;;1.40;0.50;;;8.00;1.00;;;;;;4876168;29;20579;-74
2020/12/24 03:29:38;;;;;;;0.87;0.40;;;8.00;1.00;;;;;;4862323;29;20494;-74
2020/12/24 03:32:06;;;;;;;0.40;0.40;;;7.90;1.00;;;;;;4867540;29;21014;-75
2020/12/24 03:34:34;;;;;;;0.50;0.50;;;7.90;1.00;;;;;;4867481;29;20475;-74
2020/12/24 03:37:01;;;;;;;1.97;0.40;;;7.90;1.00;;;;;;4861194;29;20474;-75
2020/12/24 03:39:28;;;;;;;0.60;0.40;;;8.00;1.00;;;;;;4863059;29;21145;-76
2020/12/24 03:41:55;;;;;;;0.60;0.40;;;8.00;1.00;;;;;;4867293;29;21625;-75
2020/12/24 03:44:22;;;;;;;0.40;0.40;;;7.90;1.00;;;;;;4881015;29;20488;-75
2020/12/24 03:46:50;;;;;;;0.40;0.40;;;8.00;1.00;;;;;;4865846;29;20481;-75
2020/12/24 03:49:18;;;;;;;0.40;0.40;;;7.90;1.00;;;;;;4865954;29;20911;-75
2020/12/24 03:51:45;;;;;;;0.40;0.40;;;7.90;1.00;;;;;;4882354;29;20509;-75
2020/12/24 03:54:12;;;;;;;0.67;0.50;;;7.80;1.00;;;;;;4864642;29;20485;-75
2020/12/24 03:56:39;;;;;;;1.00;0.50;;;7.80;1.00;;;;;;4862477;29;20481;-73
2020/12/24 03:59:06;;;;;;;1.43;0.50;;;7.80;1.00;;;;;;4863862;29;20483;-75
2020/12/24 04:01:37;;;;;;;3.13;0.63;;;7.80;1.00;;;;;;4859001;29;20508;-75
2020/12/24 04:04:05;;;;;;;0.53;0.47;;;7.80;1.00;;;;;;4882347;29;20482;-74
2020/12/24 04:06:33;;;;;;;1.00;0.40;;;7.80;1.00;;;;;;4864161;29;20480;-75
2020/12/24 04:09:00;;;;;;;0.50;0.50;;;7.80;1.00;;;;;;4865360;29;20496;-73
2020/12/24 04:11:27;;;;;;;0.50;0.50;;;7.70;1.00;;;;;;4866224;29;20503;-75
2020/12/24 04:13:55;;;;;;;1.63;0.60;;;7.80;1.00;;;;;;4873260;29;20513;-75
2020/12/24 04:16:23;;;;;;;0.53;0.50;;;7.80;1.00;;;;;;4868004;29;20477;-74
2020/12/24 04:18:50;;;;;;;0.60;0.50;;;7.80;1.00;;;;;;4863497;29;20476;-75
2020/12/24 04:21:18;;;;;;;0.50;0.50;;;7.80;1.00;;;;;;4860653;29;20493;-75
2020/12/24 04:23:46;;;;;;;1.37;0.40;;;7.80;1.00;;;;;;4865884;29;20499;-75
2020/12/24 04:26:19;;;;;;;0.53;0.53;;;7.80;1.00;;;;;;4877029;29;20482;-76
2020/12/24 04:28:46;;;;;;;3.47;0.70;;;7.80;1.00;;;;;;4862741;29;20477;-76
2020/12/24 04:31:13;;;;;;;0.60;0.43;;;7.80;1.00;;;;;;4864303;29;21008;-75
2020/12/24 04:33:41;;;;;;;0.87;0.43;;;7.70;1.00;;;;;;4861996;29;20472;-75
2020/12/24 04:36:09;;;;;;;0.50;0.50;;;7.70;1.00;;;;;;4867051;29;20479;-75
2020/12/24 04:38:36;;;;;;;0.50;0.50;;;7.70;1.00;;;;;;4869385;29;20483;-76
2020/12/24 04:41:04;;;;;;;0.93;0.30;;;7.70;1.00;;;;;;4864692;29;21009;-74
2020/12/24 04:43:32;;;;;;;0.53;0.40;;;7.60;1.00;;;;;;4862784;29;21117;-74
2020/12/24 04:46:00;;;;;;;0.90;0.53;;;7.60;1.00;;;;;;4882242;29;20509;-76
2020/12/24 04:48:27;;;;;;;0.80;0.50;;;7.40;1.00;;;;;;4863160;29;20484;-75
2020/12/24 04:50:56;;;;;;;0.40;0.40;;;7.30;1.00;;;;;;4863228;29;20878;-75
2020/12/24 04:53:23;;;;;;;0.30;0.30;;;7.30;1.00;;;;;;4859109;29;20501;-76
2020/12/24 04:55:50;;;;;;;0.40;0.40;;;7.20;1.00;;;;;;4865527;29;20494;-75
2020/12/24 04:58:19;;;;;;;0.90;0.70;;;7.30;1.00;;;;;;4865880;29;21042;-75
2020/12/24 05:00:47;;;;;;;0.40;0.40;;;7.20;1.00;;;;;;4881601;29;20592;-75
2020/12/24 05:03:15;;;;;;;0.40;0.40;;;7.30;1.00;;;;;;4877048;29;20865;-76
2020/12/24 05:05:44;;;;;;;0.40;0.40;;;7.30;1.00;;;;;;4871675;29;20483;-76
2020/12/24 05:08:12;;;;;;;0.93;0.40;;;7.30;1.00;;;;;;4863937;29;20478;-75
2020/12/24 05:10:39;;;;;;;0.40;0.40;;;7.30;1.00;;;;;;4868967;29;20496;-75
2020/12/24 05:13:18;;;;;;;0.40;0.37;;;7.30;1.00;;;;;;4868998;29;20565;-76
2020/12/24 05:15:45;;;;;;;0.30;0.30;;;7.30;1.00;;;;;;4870263;29;20475;-77
2020/12/24 05:18:14;;;;;;;0.50;0.50;;;7.20;1.00;;;;;;4878029;29;20461;-76
2020/12/24 05:20:42;;;;;;;1.00;0.50;;;7.20;1.00;;;;;;4872174;29;20510;-76
2020/12/24 05:23:13;;;;;;;1.30;0.50;;;7.10;1.00;;;;;;4865458;29;20835;-77
2020/12/24 05:25:41;;;;;;;1.30;0.40;;;7.10;1.00;;;;;;4884746;29;20481;-77
2020/12/24 05:28:19;;;;;;;0.40;0.40;;;7.00;1.00;;;;;;4864451;29;20482;-76
2020/12/24 05:30:47;;;;;;;0.50;0.50;;;7.00;1.00;;;;;;4869808;29;20498;-77
2020/12/24 05:33:29;;;;;;;1.00;0.40;;;7.00;1.00;;;;;;4865980;29;20482;-77
2020/12/24 05:36:17;;;;;;;0.43;0.40;;;7.10;1.00;;;;;;4864147;29;20489;-74
2020/12/24 05:38:44;;;;;;;0.40;0.40;;;7.10;1.00;;;;;;4864902;29;20471;-74
2020/12/24 05:41:32;;;;;;;2.00;0.60;;;7.00;1.00;;;;;;4868099;29;20494;-75
2020/12/24 05:44:01;;;;;;;1.07;0.40;;;7.00;1.00;;;;;;4867618;29;20641;-74
2020/12/24 05:46:38;;;;;;;0.50;0.40;;;7.00;1.00;;;;;;4865978;29;21213;-75
2020/12/24 05:49:13;;;;;;;0.50;0.50;;;7.10;1.00;;;;;;4869104;29;20549;-76
2020/12/24 05:51:57;;;;;;;2.57;0.50;;;7.10;1.00;;;;;;4879014;29;20581;-77
2020/12/24 05:54:25;;;;;;;0.43;0.40;;;7.10;1.00;;;;;;4867623;29;20500;-75
2020/12/24 05:56:53;;;;;;;0.57;0.53;;;7.10;1.00;;;;;;4867998;29;20481;-75
2020/12/24 05:59:24;;;;;;;0.60;0.50;;;7.10;1.00;;;;;;4867092;29;20989;-74
2020/12/24 06:02:05;;;;;;;0.40;0.40;;;7.10;1.00;;;;;;4867026;29;20501;-75
2020/12/24 06:04:59;;;;;;;0.85;0.68;;;7.00;1.00;;;;;;4883599;29;20986;-75
2020/12/24 06:07:34;;;;;;;1.15;0.40;;;6.90;1.00;;;;;;4866875;29;20225;-75
2020/12/24 06:10:07;;;;;;;1.05;0.50;;;6.90;1.00;;;;;;4865883;29;20697;-75
2020/12/24 06:12:49;;;;;;;1.37;0.60;;;6.90;1.00;;;;;;4868280;29;20212;-76
2020/12/24 06:15:18;;;;;;;1.05;0.50;;;6.90;1.00;;;;;;4884723;29;20537;-76
2020/12/24 06:17:49;;;;;;;1.33;0.60;;;6.90;1.00;;;;;;4866282;29;20250;-75
2020/12/24 06:20:19;;;;;;;1.10;0.50;;;6.90;1.00;;;;;;4867439;29;20502;-75
2020/12/24 06:22:47;;;;;;;2.20;0.60;;;6.90;1.00;;;;;;4869177;29;20213;-75
2020/12/24 06:25:14;;;;;;;1.58;0.50;;;7.00;1.00;;;;;;4866267;29;20553;-75
2020/12/24 06:27:45;;;;;;;1.92;0.68;;;7.00;1.00;;;;;;4865925;29;20268;-75
2020/12/24 06:30:20;;;;;;;1.35;0.60;;;7.00;1.00;;;;;;4862626;29;20242;-74
2020/12/24 06:32:49;;;;;;;1.35;0.73;;;7.10;1.00;;;;;;4868197;29;20691;-75
2020/12/24 06:35:35;;;;;;;0.80;0.60;;;7.10;1.00;;;;;;4865148;29;20308;-75
2020/12/24 06:38:03;;;;;;;4.00;0.70;;;7.00;1.00;;;;;;4864704;29;20974;-74
2020/12/24 06:40:32;;;;;;;4.40;0.70;;;7.10;1.00;;;;;;4872082;29;20497;-76
2020/12/24 06:43:00;;;;;;;1.83;0.80;;;7.00;1.00;;;;;;4867893;29;20217;-75
2020/12/24 06:45:38;;;;;;;0.80;0.60;;;7.00;1.00;;;;;;4876029;29;20360;-74
2020/12/24 06:48:19;;;;;;;1.00;0.80;;;7.00;1.00;;;;;;4868761;29;20564;-74
2020/12/24 06:50:47;;;;;;;1.90;0.60;;;7.00;1.00;;;;;;4866172;29;20562;-74
2020/12/24 06:53:25;;;;;;;1.90;0.70;;;7.10;1.00;;;;;;4880558;29;20620;-76
2020/12/24 06:56:22;;;;;;;2.33;0.70;;;7.10;1.00;;;;;;4866054;29;20227;-74
2020/12/24 06:58:55;;;;;;;3.92;0.60;;;7.00;1.00;;;;;;4867113;29;20470;-75
2020/12/24 07:01:26;;;;;;;0.70;0.70;;;7.20;1.00;;;;;;4884885;29;20224;-76
2020/12/24 07:03:55;;;;;;;1.20;0.70;;;7.10;1.00;;;;;;4889672;29;20210;-75
2020/12/24 07:06:54;;;;;;;2.13;0.67;;;7.10;1.00;;;;;;4872712;29;20563;-75
2020/12/24 07:09:41;;;;;;;3.13;0.60;;;7.10;1.00;;;;;;4871401;29;20474;-74
2020/12/24 07:12:08;;;;;;;1.53;0.50;;;7.10;1.00;;;;;;4865575;29;20303;-75
2020/12/24 07:14:37;;;;;;;1.17;0.90;;;7.10;1.00;;;;;;4864310;29;20477;-73
2020/12/24 07:17:10;;;;;;;1.63;0.60;;;7.10;1.00;;;;;;4862366;29;21205;-73
2020/12/24 07:19:41;;;;;;;1.40;0.77;;;7.10;1.00;;;;;;4864928;29;20221;-73
2020/12/24 07:22:12;;;;;;;1.93;0.50;;;7.10;1.00;;;;;;4866003;29;20228;-74
2020/12/24 07:24:39;;;;;;;1.80;0.60;;;7.20;99.90;;;;;;4867262;29;20479;-74
2020/12/24 07:27:07;;;;;;;1.17;0.70;;;7.10;99.90;;;;;;4861533;29;20837;-74
2020/12/24 07:29:35;;;;;;;3.17;0.75;;;7.20;99.90;;;;;;4857986;29;20601;-74
2020/12/24 07:32:04;;;;;;;1.33;0.67;;;7.10;99.90;;;;;;4867979;29;20716;-73
2020/12/24 07:34:34;;;;;;;2.47;0.70;;;7.20;1.00;;;;;;4863700;29;20483;-74
2020/12/24 07:37:02;;;;;;;4.18;0.80;;;7.10;99.90;;;;;;4867117;29;20463;-75
2020/12/24 07:39:30;;;;;;;2.15;0.70;;;7.10;67.20;;;;;;4867375;29;20216;-74
2020/12/24 07:41:57;;;;;;;6.40;1.10;;;7.10;31.70;;;;;;4864569;29;20232;-74
2020/12/24 07:44:25;;;;;;;2.28;0.60;;;7.10;90.60;;;;;;4864948;29;20468;-75
2020/12/24 07:46:53;;;;;;;1.35;0.73;;;7.10;1.00;;;;;;4865014;29;20274;-74
2020/12/24 07:49:20;;;;;;;2.30;1.53;;;7.20;1.00;;;;;;4868258;29;20771;-74
2020/12/24 07:51:54;;;;;;;1.90;0.87;;;7.30;37.80;;;;;;4864442;29;20977;-73
2020/12/24 07:54:25;;;;;;;4.13;0.90;;;7.20;90.70;;;;;;4879037;29;20470;-74
2020/12/24 07:56:53;;;;;;;2.37;0.60;;;7.30;1.00;;;;;;4871903;29;20212;-74
2020/12/24 07:59:21;;;;;;;0.80;0.70;;;7.30;99.90;;;;;;4871529;29;20974;-75
2020/12/24 08:01:48;;;;;;;1.63;0.70;;;7.40;99.90;;;;;;4864246;29;20532;-77
2020/12/24 08:04:16;;;;;;;1.25;0.70;;;7.40;99.90;;;;;;4865581;29;20953;-75
2020/12/24 08:06:43;;;;;;;3.60;0.90;;;7.40;99.90;;;;;;4865558;29;20682;-74
2020/12/24 08:09:12;;;;;;;2.50;0.80;;;7.50;1.00;;;;;;4867408;29;20482;-73
2020/12/24 08:11:41;;;;;;;0.80;0.80;;;7.50;99.90;;;;;;4865821;29;20498;-74
2020/12/24 08:14:09;;;;;;;2.40;0.80;;;7.50;99.90;;;;;;4865795;29;20478;-74
2020/12/24 08:16:39;;;;;;;1.43;0.70;;;7.50;99.90;;;;;;4866113;29;20218;-74
2020/12/24 08:19:13;;;;;;;0.80;0.60;;;7.50;99.90;;;;;;4863876;29;21143;-74
2020/12/24 08:21:51;;;;;;;0.45;0.40;;;7.50;1.00;;;;;;4881837;29;22937;-73
2020/12/24 08:24:19;;;;;;;0.67;0.67;;;7.40;1.00;;;;;;4862404;29;20234;-73
2020/12/24 08:26:47;;;;;;;0.87;0.50;;;7.30;1.00;;;;;;4867153;29;20568;-73
2020/12/24 08:29:15;;;;;;;0.82;0.60;;;7.20;99.90;;;;;;4866845;29;20475;-73
2020/12/24 08:31:43;;;;;;;1.53;0.70;;;7.20;99.90;;;;;;4861027;29;20238;-74
2020/12/24 08:34:11;;;;;;;0.63;0.50;;;7.20;99.90;;;;;;4867370;29;20564;-73
2020/12/24 08:36:43;;;;;;;1.87;0.60;;;7.20;1.00;;;;;;4877944;29;22120;-74
2020/12/24 08:39:12;;;;;;;0.77;0.70;;;7.00;99.90;;;;;;4874992;29;20553;-74
2020/12/24 08:41:41;;;;;;;1.60;0.70;;;6.90;1.00;;;;;;4861712;29;20684;-74
2020/12/24 08:44:11;;;;;;;0.88;0.60;;;6.90;67.10;;;;;;4862699;29;20586;-75
2020/12/24 08:46:38;;;;;;;0.90;0.40;;;6.90;1.00;;;;;;4869095;29;20506;-73
2020/12/24 08:49:22;;;;;;;0.50;0.50;;;6.90;67.70;;;;;;4882122;29;20495;-72
2020/12/24 08:51:49;;;;;;;1.45;0.50;;;6.80;99.90;;;;;;4860009;29;20491;-74
2020/12/24 08:54:17;;;;;;;0.87;0.80;;;6.80;99.90;;;;;;4864215;29;20263;-71
2020/12/24 08:56:44;;;;;;;0.50;0.50;;;7.00;99.90;;;;;;4864675;29;21020;-73
2020/12/24 08:59:14;;;;;;;0.68;0.57;;;7.00;1.00;;;;;;4866683;29;20685;-73
2020/12/24 09:01:42;;;;;;;1.67;0.50;;;6.90;99.90;;;;;;4870990;29;20248;-73
2020/12/24 09:04:14;;;;;;;0.65;0.50;;;6.90;99.90;;;;;;4874900;29;20328;-74
2020/12/24 09:06:42;;;;;;;1.40;0.60;;;7.00;99.90;;;;;;4865060;29;21000;-74
2020/12/24 09:09:23;;;;;;;0.70;0.57;;;7.00;99.90;;;;;;4868114;29;20225;-73
2020/12/24 09:11:51;;;;;;;1.20;0.60;;;7.00;1.00;;;;;;4867683;29;20516;-76
2020/12/24 09:14:21;;;;;;;0.70;0.57;;;6.90;1.00;;;;;;4884055;29;20522;-75
2020/12/24 09:16:56;;;;;;;0.50;0.50;;;7.00;1.00;;;;;;4866191;29;20521;-72
2020/12/24 09:19:24;;;;;;;1.03;0.50;;;7.00;1.00;;;;;;4865836;29;20483;-73
2020/12/24 09:21:53;;;;;;;1.27;0.60;;;7.20;99.90;;;;;;4866700;29;20899;-75
2020/12/24 09:24:20;;;;;;;0.55;0.55;;;7.20;99.90;;;;;;4865039;29;20274;-73
2020/12/24 09:26:49;;;;;;;1.13;0.47;;;7.20;1.00;;;;;;4863898;29;20680;-73
2020/12/24 09:29:17;;;;;;;0.50;0.50;;;7.20;99.90;;;;;;4865510;29;20480;-72
2020/12/24 09:31:57;;;;;;;0.60;0.50;;;7.10;1.00;;;;;;4862216;29;20504;-73
2020/12/24 09:34:25;;;;;;;0.47;0.47;;;7.10;1.00;;;;;;4865055;29;20475;-72
2020/12/24 09:36:53;;;;;;;1.90;0.50;;;7.10;99.90;;;;;;4870445;29;20470;-73
2020/12/24 09:39:20;;;;;;;0.50;0.50;;;7.00;1.00;;;;;;4873223;29;20303;-77
2020/12/24 09:41:48;;;;;;;0.87;0.60;;;7.00;1.00;;;;;;4873408;29;20628;-76
2020/12/24 09:44:16;;;;;;;0.70;0.47;;;7.00;99.90;;;;;;4873997;29;20493;-76
2020/12/24 09:46:46;;;;;;;1.73;0.60;;;7.10;1.00;;;;;;4878152;29;20221;-77
2020/12/24 09:49:15;;;;;;;2.40;0.73;;;7.10;99.90;;;;;;4873897;29;20327;-71
2020/12/24 09:51:42;;;;;;;1.03;0.80;;;7.20;12.00;;;;;;4873128;29;21082;-71
2020/12/24 09:54:28;;;;;;;2.37;0.60;;;7.20;99.90;;;;;;4881610;29;20482;-71
2020/12/24 09:56:56;;;;;;;0.67;0.50;;;7.40;77.20;;;;;;4889391;29;20574;-70
2020/12/24 09:59:23;;;;;;;4.80;0.97;;;7.30;1.00;;;;;;4868392;29;20475;-70
2020/12/24 10:01:53;;;;;;;2.10;0.70;;;7.30;1.00;;;;;;4868829;29;20486;-70
2020/12/24 10:04:21;;;;;;;1.00;0.50;;;7.40;99.90;;;;;;4867534;29;20966;-70
2020/12/24 10:06:49;;;;;;;0.60;0.57;;;7.40;99.90;;;;;;4869408;29;20581;-69
2020/12/24 10:09:17;;;;;;;0.80;0.57;;;7.50;1.00;;;;;;4866811;29;20245;-71
2020/12/24 10:11:47;;;;;;;0.63;0.50;;;7.50;99.90;;;;;;4865735;29;20879;-69
2020/12/24 10:14:15;;;;;;;1.13;0.50;;;7.50;99.90;;;;;;4866538;29;20464;-70
2020/12/24 10:16:42;;;;;;;2.30;1.70;;;7.50;1.00;;;;;;4866274;29;20466;-69
2020/12/24 10:19:10;;;;;;;4.63;0.70;;;7.60;99.90;;;;;;4863364;29;20505;-70
2020/12/24 10:21:40;;;;;;;3.33;0.50;;;7.60;1.00;;;;;;4869341;29;20555;-70
2020/12/24 10:24:16;;;;;;;1.20;0.70;;;7.70;99.90;;;;;;4873305;29;20473;-70
2020/12/24 10:26:43;;;;;;;3.83;0.60;;;7.90;99.90;;;;;;4864144;29;20553;-70
2020/12/24 10:29:10;;;;;;;1.70;0.60;;;8.00;1.00;;;;;;4880380;29;20837;-72
2020/12/24 10:31:42;;;;;;;1.07;0.50;;;8.00;99.90;;;;;;4873708;29;20500;-71
2020/12/24 10:34:09;;;;;;;1.27;0.60;;;8.00;99.90;;;;;;4874996;29;20827;-69
2020/12/24 10:36:36;;;;;;;0.63;0.57;;;8.20;99.90;;;;;;4873605;29;20454;-71
2020/12/24 10:39:06;;;;;;;3.07;0.60;;;8.40;99.90;;;;;;4875293;29;20488;-69
2020/12/24 10:41:34;;;;;;;1.50;0.60;;;8.40;99.90;;;;;;4874812;29;20493;-70
2020/12/24 10:44:01;;;;;;;0.50;0.40;;;8.50;99.90;;;;;;4873634;29;21101;-70
2020/12/24 10:46:28;;;;;;;0.60;0.50;;;8.50;99.90;;;;;;4875005;29;20468;-70
2020/12/24 10:48:55;;;;;;;0.50;0.50;;;8.40;78.40;;;;;;4873629;29;20464;-71
2020/12/24 10:51:22;;;;;;;0.57;0.50;;;8.50;99.90;;;;;;4875911;29;20887;-70
2020/12/24 10:53:50;;;;;;;0.83;0.43;;;8.50;99.90;;;;;;4872240;29;20866;-71
2020/12/24 10:56:18;;;;;;;0.50;0.40;;;8.50;99.90;;;;;;4874784;29;20523;-70
2020/12/24 10:58:46;;;;;;;1.13;0.50;;;8.40;99.90;;;;;;4872759;29;20473;-71
2020/12/24 11:01:14;;;;;;;0.40;0.40;;;8.40;99.90;;;;;;4873838;29;20521;-71
2020/12/24 11:03:42;;;;;;;0.50;0.40;;;8.30;1.00;;;;;;4873708;29;20466;-70
2020/12/24 11:06:15;;;;;;;1.50;0.50;;;8.20;1.00;;;;;;4877373;29;20468;-70
2020/12/24 11:08:42;;;;;;;0.50;0.47;;;8.20;1.00;;;;;;4874194;29;20481;-71
2020/12/24 11:11:09;;;;;;;0.43;0.43;;;8.20;1.00;;;;;;4875109;29;20563;-70
2020/12/24 11:13:37;;;;;;;0.60;0.60;;;8.20;99.90;;;;;;4872547;29;20477;-69
2020/12/24 11:16:04;;;;;;;3.80;0.70;;;8.30;1.00;;;;;;4888477;29;20476;-68
2020/12/24 11:18:31;;;;;;;0.60;0.53;;;8.30;1.00;;;;;;4872109;29;20463;-71
2020/12/24 11:20:59;;;;;;;0.97;0.63;;;8.40;99.90;;;;;;4871742;29;20486;-71
2020/12/24 11:23:26;;;;;;;0.50;0.50;;;8.60;99.90;;;;;;4874729;29;20839;-70
2020/12/24 11:25:53;;;;;;;1.80;0.60;;;8.80;1.00;;;;;;4875511;29;20478;-72
2020/12/24 11:28:20;;;;;;;0.40;0.40;;;9.20;1.00;;;;;;4878387;29;21045;-70
2020/12/24 11:30:48;;;;;;;1.53;0.50;;;9.70;1.00;;;;;;4875009;29;20532;-71
2020/12/24 11:33:15;;;;;;;0.47;0.47;;;10.20;99.90;;;;;;4873899;29;20511;-71
2020/12/24 11:35:42;;;;;;;0.70;0.50;;;10.20;99.90;;;;;;4875106;29;20470;-71
2020/12/24 11:38:10;;;;;;;0.50;0.40;;;10.10;98.70;;;;;;4877343;29;20455;-71
2020/12/24 11:40:37;;;;;;;0.97;0.60;;;9.90;99.90;;;;;;4865496;29;20502;-71
2020/12/24 11:43:04;;;;;;;0.80;0.50;;;9.50;99.90;;;;;;4874064;29;20467;-71
2020/12/24 11:45:31;;;;;;;0.50;0.50;;;9.50;99.90;;;;;;4888839;29;20464;-71
2020/12/24 11:47:59;;;;;;;0.50;0.40;;;9.80;99.90;;;;;;4872927;29;21057;-70
2020/12/24 11:50:26;;;;;;;0.70;0.40;;;9.90;99.90;;;;;;4872251;29;20485;-70
2020/12/24 11:52:53;;;;;;;1.53;0.60;;;10.10;99.90;;;;;;4870017;29;20473;-70
2020/12/24 11:55:20;;;;;;;0.50;0.43;;;9.90;99.90;;;;;;4870073;29;20471;-70
2020/12/24 11:57:47;;;;;;;0.87;0.43;;;9.80;99.90;;;;;;4868118;29;20761;-70
2020/12/24 12:00:14;;;;;;;0.50;0.50;;;9.40;99.90;;;;;;4873119;29;20625;-70
2020/12/24 12:02:42;;;;;;;0.70;0.40;;;9.40;1.00;;;;;;4872972;29;20505;-70
2020/12/24 12:05:09;;;;;;;1.00;0.50;;;9.40;1.00;;;;;;4873803;29;20861;-69
2020/12/24 12:07:36;;;;;;;1.30;0.60;;;9.20;1.00;;;;;;4871958;29;20563;-70
2020/12/24 12:10:04;;;;;;;0.50;0.40;;;9.20;1.00;;;;;;4874158;29;20511;-71
2020/12/24 12:12:31;;;;;;;0.67;0.67;;;9.20;1.00;;;;;;4872739;29;20484;-69
2020/12/24 12:14:58;;;;;;;1.07;0.50;;;9.40;1.00;;;;;;4871751;29;20512;-70
2020/12/24 12:17:25;;;;;;;0.87;0.50;;;9.20;10.70;;;;;;4872472;29;21007;-71
2020/12/24 12:19:53;;;;;;;0.83;0.40;;;9.00;99.90;;;;;;4873193;29;21127;-71
2020/12/24 12:22:22;;;;;;;1.37;0.50;;;9.20;99.90;;;;;;4873523;29;20474;-71
2020/12/24 12:24:49;;;;;;;0.40;0.30;;;9.50;1.00;;;;;;4871921;29;20863;-71
2020/12/24 12:27:16;;;;;;;1.13;0.60;;;9.50;1.00;;;;;;4873740;29;20469;-69
2020/12/24 12:29:43;;;;;;;0.50;0.47;;;9.40;1.00;;;;;;4871880;29;20526;-71
2020/12/24 12:32:10;;;;;;;0.47;0.43;;;9.20;2.60;;;;;;4872324;29;20483;-71
2020/12/24 12:34:37;;;;;;;1.70;0.47;;;9.30;1.00;;;;;;4873446;29;20477;-71
2020/12/24 12:37:04;;;;;;;0.40;0.40;;;9.30;1.00;;;;;;4864387;29;20480;-71
2020/12/24 12:39:32;;;;;;;1.67;0.50;;;9.20;1.00;;;;;;4869589;29;20467;-69
2020/12/24 12:41:59;;;;;;;0.50;0.50;;;9.30;1.00;;;;;;4872144;29;20479;-73
2020/12/24 12:44:27;;;;;;;0.60;0.50;;;9.10;1.00;;;;;;4872152;29;20475;-70
2020/12/24 12:46:56;;;;;;;0.87;0.60;;;9.00;99.90;;;;;;4870754;29;20467;-72
2020/12/24 12:49:24;;;;;;;0.50;0.50;;;9.00;99.90;;;;;;4868817;29;20462;-69
2020/12/24 12:51:51;;;;;;;1.37;0.57;;;8.90;99.90;;;;;;4871841;29;20513;-69
2020/12/24 12:54:18;;;;;;;1.17;0.60;;;8.80;1.00;;;;;;4872083;29;20486;-69
2020/12/24 12:56:46;;;;;;;0.63;0.50;;;8.90;29.60;;;;;;4872487;29;20481;-69
2020/12/24 12:59:13;;;;;;;0.70;0.50;;;8.90;1.00;;;;;;4871351;29;20482;-69
2020/12/24 13:01:40;;;;;;;1.50;0.60;;;8.80;1.00;;;;;;4874410;29;20491;-69
2020/12/24 13:04:11;;;;;;;1.60;0.60;;;8.70;99.90;;;;;;4868617;29;20466;-69
2020/12/24 13:06:39;;;;;;;1.77;0.90;;;8.60;58.70;;;;;;4872036;29;20570;-70
2020/12/24 13:09:06;;;;;;;1.23;0.50;;;8.40;99.90;;;;;;4871842;29;20467;-69
2020/12/24 13:11:33;;;;;;;0.40;0.40;;;8.50;17.60;;;;;;4870560;29;20493;-70